Time,TemperatureF,DewpointF,PressureIn,WindDirection,WindDirectionDegrees,WindSpeedMPH,WindSpeedGustMPH,Humidity,HourlyPrecipIn,Conditions,Clouds,dailyrainin,SoftwareType,DateUTC
2013-03-02 00:00:00,27.3,23.7,29.78,NW,319,2.0,5.0,86,0.00,,,0.00,Wunderground v.1.13,2013-03-02 05:00:00,
2013-03-02 00:30:00,27.2,23.0,29.78,NW,319,2.0,2.0,84,0.00,,,0.00,Wunderground v.1.13,2013-03-02 05:30:00,
2013-03-02 01:00:00,27.0,22.2,29.78,NW,319,2.0,2.0,82,0.00,,,0.00,Wunderground v.1.13,2013-03-02 06:00:00,
2013-03-02 01:30:00,26.7,22.2,29.79,NW,319,1.0,5.0,83,0.00,,,0.00,Wunderground v.1.13,2013-03-02 06:30:00,
2013-03-02 03:00:00,25.0,21.4,29.79,NW,315,1.0,6.0,86,0.00,,,0.01,Wunderground v.1.13,2013-03-02 08:00:00,
2013-03-02 03:30:00,24.5,20.6,29.79,NW,315,1.0,6.0,85,0.01,,,0.01,Wunderground v.1.13,2013-03-02 08:30:00,
2013-03-02 04:00:00,24.2,20.6,29.79,NW,315,1.0,5.0,86,0.01,,,0.01,Wunderground v.1.13,2013-03-02 09:00:00,
2013-03-02 04:30:00,23.6,19.8,29.80,NW,315,1.0,8.0,85,0.00,,,0.01,Wunderground v.1.13,2013-03-02 09:30:00,
2013-03-02 05:00:00,23.3,19.5,29.80,NW,315,1.0,10.0,85,0.00,,,0.01,Wunderground v.1.13,2013-03-02 10:00:00,
2013-03-02 05:30:00,23.2,19.1,29.80,NW,315,1.0,7.0,84,0.00,,,0.01,Wunderground v.1.13,2013-03-02 10:30:00,
2013-03-02 06:00:00,22.7,18.3,29.81,NW,315,1.0,7.0,83,0.00,,,0.01,Wunderground v.1.13,2013-03-02 11:00:00,
2013-03-02 06:30:00,22.5,17.5,29.81,NW,315,1.0,7.0,81,0.00,,,0.01,Wunderground v.1.13,2013-03-02 11:30:00,
2013-03-02 07:00:00,22.5,17.3,29.82,NW,315,1.0,6.0,80,0.00,,,0.01,Wunderground v.1.13,2013-03-02 12:00:00,
2013-03-02 07:30:00,22.5,16.7,29.82,NW,315,2.0,9.0,78,0.00,,,0.01,Wunderground v.1.13,2013-03-02 12:30:00,
2013-03-02 08:00:00,23.2,17.1,29.82,NW,315,2.0,8.0,77,0.00,,,0.01,Wunderground v.1.13,2013-03-02 13:00:00,
2013-03-02 08:30:00,23.8,16.7,29.82,NW,315,2.0,7.0,74,0.00,,,0.01,Wunderground v.1.13,2013-03-02 13:30:00,
2013-03-02 09:00:00,23.9,16.5,29.82,NW,315,2.0,7.0,73,0.00,,,0.01,Wunderground v.1.13,2013-03-02 14:00:00,
2013-03-02 09:30:00,24.7,16.6,29.82,WSW,248,2.0,10.0,71,0.00,,,0.01,Wunderground v.1.13,2013-03-02 14:30:00,
2013-03-02 10:00:00,25.1,16.4,29.81,WSW,248,3.0,12.0,69,0.00,,,0.01,Wunderground v.1.13,2013-03-02 15:00:00,
2013-03-02 10:30:00,25.3,16.5,29.81,West,270,3.0,10.0,69,0.00,,,0.01,Wunderground v.1.13,2013-03-02 15:30:00,
2013-03-02 11:00:00,25.3,16.2,29.81,WNW,293,3.0,10.0,68,0.00,,,0.01,Wunderground v.1.13,2013-03-02 16:00:00,
2013-03-02 11:30:00,25.1,16.4,29.81,WNW,293,3.0,10.0,69,0.00,,,0.01,Wunderground v.1.13,2013-03-02 16:30:00,
2013-03-02 12:00:00,25.6,16.5,29.80,West,270,2.0,11.0,68,0.00,,,0.01,Wunderground v.1.13,2013-03-02 17:00:00,
2013-03-02 12:30:00,25.8,16.7,29.79,West,270,2.0,9.0,68,0.00,,,0.01,Wunderground v.1.13,2013-03-02 17:30:00,
2013-03-02 13:00:00,26.0,16.9,29.79,West,270,2.0,11.0,68,0.00,,,0.01,Wunderground v.1.13,2013-03-02 18:00:00,
2013-03-02 13:30:00,25.3,16.2,29.79,WNW,293,3.0,9.0,68,0.00,,,0.01,Wunderground v.1.13,2013-03-02 18:30:00,
2013-03-02 14:00:00,25.1,16.0,29.79,NW,315,3.0,10.0,68,0.00,,,0.01,Wunderground v.1.13,2013-03-02 19:00:00,
2013-03-02 14:30:00,25.0,15.6,29.79,WNW,293,3.0,13.0,67,0.00,,,0.01,Wunderground v.1.13,2013-03-02 19:30:00,
2013-03-02 15:00:00,24.8,15.4,29.79,West,270,2.0,11.0,67,0.00,,,0.01,Wunderground v.1.13,2013-03-02 20:00:00,
2013-03-02 15:30:00,24.7,15.3,29.79,WNW,293,2.0,7.0,67,0.00,,,0.01,Wunderground v.1.13,2013-03-02 20:30:00,
2013-03-02 16:00:00,24.5,15.1,29.79,WNW,293,2.0,7.0,67,0.00,,,0.01,Wunderground v.1.13,2013-03-02 21:00:00,
2013-03-02 16:30:00,24.5,14.8,29.80,WNW,293,1.0,7.0,66,0.00,,,0.01,Wunderground v.1.13,2013-03-02 21:30:00,
2013-03-02 17:00:00,24.4,15.0,29.81,WSW,248,1.0,7.0,67,0.00,,,0.01,Wunderground v.1.13,2013-03-02 22:00:00,
2013-03-02 17:30:00,24.2,14.8,29.81,WSW,248,1.0,5.0,67,0.00,,,0.01,Wunderground v.1.13,2013-03-02 22:30:00,
2013-03-02 18:00:00,24.2,15.2,29.81,WSW,248,1.0,5.0,68,0.00,,,0.01,Wunderground v.1.13,2013-03-02 23:00:00,
2013-03-02 18:30:00,24.1,15.7,29.80,WSW,248,1.0,4.0,70,0.00,,,0.01,Wunderground v.1.13,2013-03-02 23:30:00,
2013-03-02 19:00:00,24.1,16.1,29.80,WSW,248,1.0,6.0,71,0.00,,,0.01,Wunderground v.1.13,2013-03-03 00:00:00,
2013-03-02 19:30:00,23.5,15.8,29.80,WSW,248,1.0,7.0,72,0.00,,,0.01,Wunderground v.1.13,2013-03-03 00:30:00,
2013-03-02 20:00:00,22.9,16.5,29.80,WSW,248,2.0,9.0,76,0.00,,,0.01,Wunderground v.1.13,2013-03-03 01:00:00,
2013-03-02 20:30:00,22.7,16.9,29.80,WSW,248,1.0,6.0,78,0.00,,,0.01,Wunderground v.1.13,2013-03-03 01:30:00,
2013-03-02 21:00:00,22.9,17.1,29.80,WSW,248,1.0,7.0,78,0.00,,,0.01,Wunderground v.1.13,2013-03-03 02:00:00,
2013-03-02 21:30:00,22.7,16.9,29.79,WSW,248,2.0,6.0,78,0.00,,,0.01,Wunderground v.1.13,2013-03-03 02:30:00,
2013-03-02 22:00:00,22.9,17.7,29.78,WSW,248,1.0,6.0,80,0.00,,,0.01,Wunderground v.1.13,2013-03-03 03:00:00,
2013-03-02 22:30:00,23.2,17.9,29.77,WSW,248,1.0,5.0,80,0.00,,,0.01,Wunderground v.1.13,2013-03-03 03:30:00,
2013-03-02 23:00:00,23.3,18.0,29.77,WSW,248,1.0,4.0,80,0.00,,,0.01,Wunderground v.1.13,2013-03-03 04:00:00,
2013-03-02 23:30:00,22.9,17.7,29.77,WSW,248,1.0,9.0,80,0.00,,,0.01,Wunderground v.1.13,2013-03-03 04:30:00,